Time;durP1;ratioP1;P1;durP2;ratioP2;P2;SDS_P1;SDS_P2;PMS_P1;PMS_P2;Temp;Humidity;BMP_temperature;BMP_pressure;BME280_temperature;BME280_humidity;BME280_pressure;Samples;Min_cycle;Max_cycle;Signal;HPM_P1;HPM_P2
2022/01/18 00:01:22;;;;;;;26.52;16.58;;;;;;;4.22;81.48;98379.53;5043485;28;20045;-76
2022/01/18 00:03:51;;;;;;;25.27;17.17;;;;;;;4.23;81.04;98378.63;5043989;28;20059;-75
2022/01/18 00:06:18;;;;;;;27.27;17.65;;;;;;;4.20;80.92;98376.22;5040895;28;20053;-74
2022/01/18 00:08:46;;;;;;;27.50;17.35;;;;;;;4.20;80.82;98373.63;5033002;28;20046;-76
2022/01/18 00:11:15;;;;;;;28.38;17.95;;;;;;;4.20;81.06;98373.63;5032362;28;20053;-76
2022/01/18 00:13:45;;;;;;;26.85;17.15;;;;;;;4.19;80.95;98374.59;5032525;28;20119;-76
2022/01/18 00:16:27;;;;;;;29.05;17.33;;;;;;;4.18;80.81;98375.53;5031794;28;20045;-75
2022/01/18 00:19:00;;;;;;;27.98;16.83;;;;;;;4.19;80.94;98379.75;5032572;28;20077;-74
2022/01/18 00:21:37;;;;;;;29.05;16.85;;;;;;;4.20;80.76;98386.56;5047211;28;20064;-75
2022/01/18 00:24:07;;;;;;;27.42;17.15;;;;;;;4.20;81.07;98389.13;5051657;28;20064;-76
2022/01/18 00:26:35;;;;;;;28.48;16.52;;;;;;;4.22;81.05;98392.47;5052536;28;20105;-75
2022/01/18 00:29:08;;;;;;;28.65;17.25;;;;;;;4.22;81.15;98392.47;5051288;28;20053;-75
2022/01/18 00:34:24;;;;;;;32.17;18.92;;;;;;;4.24;80.85;98401.78;5037522;28;20053;-76
2022/01/18 00:36:59;;;;;;;29.35;17.00;;;;;;;4.25;81.44;98402.63;5035867;28;20041;-75
2022/01/18 00:39:27;;;;;;;29.63;17.88;;;;;;;4.28;81.32;98408.41;5036235;28;20415;-76
2022/01/18 00:41:55;;;;;;;32.60;19.52;;;;;;;4.30;81.36;98409.13;5035999;28;20049;-75
2022/01/18 00:44:23;;;;;;;29.40;17.83;;;;;;;4.31;81.58;98417.72;5035732;28;20053;-76
2022/01/18 00:46:51;;;;;;;32.08;18.17;;;;;;;4.28;81.13;98417.91;5035005;28;20053;-75
2022/01/18 00:49:20;;;;;;;29.13;17.38;;;;;;;4.28;81.29;98418.72;5035451;28;20046;-75
2022/01/18 00:51:54;;;;;;;32.15;19.00;;;;;;;4.28;80.89;98423.06;5035228;28;20535;-75
2022/01/18 00:54:23;;;;;;;34.42;18.33;;;;;;;4.23;80.64;98423.38;5035467;28;20111;-75
2022/01/18 00:56:52;;;;;;;30.58;18.40;;;;;;;4.20;80.70;98420.13;5035291;28;20045;-75
2022/01/18 00:59:21;;;;;;;31.33;17.45;;;;;;;4.18;81.44;98422.84;5035282;28;20057;-75
2022/01/18 01:01:49;;;;;;;29.25;17.20;;;;;;;4.21;81.26;98426.97;5035345;28;20530;-75
2022/01/18 01:04:20;;;;;;;32.42;18.42;;;;;;;4.24;81.71;98421.59;5035222;28;20072;-75
2022/01/18 01:06:49;;;;;;;30.25;18.13;;;;;;;4.27;81.75;98424.00;5034802;28;20049;-74
2022/01/18 01:09:16;;;;;;;32.72;18.52;;;;;;;4.27;81.15;98436.94;5035210;28;20049;-75
2022/01/18 01:11:44;;;;;;;31.25;17.50;;;;;;;4.27;81.59;98434.34;5035019;28;20053;-75
2022/01/18 01:14:19;;;;;;;37.83;18.52;;;;;;;4.28;81.59;98444.56;5034847;28;20530;-76
2022/01/18 01:16:56;;;;;;;32.33;17.92;;;;;;;4.28;81.68;98443.75;5034507;28;20057;-75
2022/01/18 01:19:45;;;;;;;39.40;21.33;;;;;;;4.26;81.02;98451.59;5034994;28;20053;-75
2022/01/18 01:33:46;;;;;;;30.45;17.10;;;;;;;4.21;81.51;98452.81;5035137;28;20081;-75
2022/01/18 01:36:31;;;;;;;36.00;19.63;;;;;;;4.19;81.06;98449.50;5034529;28;20045;-76
2022/01/18 01:42:16;;;;;;;26.17;16.02;;;;;;;4.20;81.70;98458.88;5033837;28;20099;-76
2022/01/18 01:44:45;;;;;;;28.80;15.52;;;;;;;4.24;81.54;98462.94;5034485;28;20045;-75
2022/01/18 01:47:18;;;;;;;31.70;18.33;;;;;;;4.22;81.67;98475.13;5034071;28;20049;-75
2022/01/18 01:49:48;;;;;;;26.67;15.63;;;;;;;4.23;82.11;98474.22;5034108;28;20431;-75
2022/01/18 01:52:17;;;;;;;40.15;19.85;;;;;;;4.22;81.67;98475.13;5034220;28;20046;-76
2022/01/18 01:54:46;;;;;;;35.30;19.77;;;;;;;4.18;81.56;98469.34;5034366;28;20045;-75
2022/01/18 01:57:14;;;;;;;30.35;17.33;;;;;;;4.19;82.00;98473.56;5033830;28;20049;-75
2022/01/18 01:59:42;;;;;;;28.05;16.58;;;;;;;4.22;82.08;98470.81;5033838;28;20073;-75
2022/01/18 02:02:10;;;;;;;31.08;17.85;;;;;;;4.24;81.71;98473.25;5034090;28;20054;-75
2022/01/18 02:04:37;;;;;;;32.17;17.25;;;;;;;4.25;81.95;98472.34;5033771;28;20056;-75
2022/01/18 02:07:05;;;;;;;32.28;18.67;;;;;;;4.28;82.01;98469.56;5033588;28;20091;-75
2022/01/18 02:09:33;;;;;;;35.20;19.10;;;;;;;4.32;82.28;98465.88;5033843;28;20049;-75
2022/01/18 02:12:02;;;;;;;35.42;18.20;;;;;;;4.35;82.07;98465.66;5033909;28;20056;-75
2022/01/18 02:14:32;;;;;;;39.40;19.27;;;;;;;4.37;82.26;98469.00;5077567;22;20398;-79
2022/01/18 02:22:31;;;;;;;34.60;18.80;;;;;;;4.38;81.74;98472.41;5060669;28;20060;-79
2022/01/18 02:24:59;;;;;;;31.98;17.60;;;;;;;4.39;81.62;98461.97;5040011;28;20045;-79
2022/01/18 02:27:28;;;;;;;29.60;16.38;;;;;;;4.40;81.36;98460.25;5039350;28;20057;-79
2022/01/18 02:29:56;;;;;;;28.67;17.15;;;;;;;4.39;81.56;98461.97;5039779;28;20590;-80
2022/01/18 02:32:23;;;;;;;28.27;17.23;;;;;;;4.39;81.41;98459.38;5039861;28;20076;-80
2022/01/18 02:34:51;;;;;;;29.25;16.38;;;;;;;4.40;81.54;98461.06;5039257;28;20060;-80
2022/01/18 02:37:18;;;;;;;28.45;16.23;;;;;;;4.38;81.57;98455.16;5039213;28;20046;-78
2022/01/18 02:39:47;;;;;;;26.02;14.65;;;;;;;4.37;81.60;98463.81;5038842;28;20063;-81
2022/01/18 02:42:16;;;;;;;25.50;15.38;;;;;;;4.38;81.79;98465.50;5038912;28;20141;-77
2022/01/18 02:44:43;;;;;;;22.88;14.00;;;;;;;4.41;81.46;98467.03;5039014;28;20053;-79
2022/01/18 02:47:12;;;;;;;23.92;12.80;;;;;;;4.39;81.28;98461.97;5038021;28;20507;-80
2022/01/18 02:49:39;;;;;;;22.10;13.85;;;;;;;4.38;80.69;98468.06;5038372;28;20056;-80
2022/01/18 02:52:07;;;;;;;18.23;12.15;;;;;;;4.37;80.58;98473.34;5038290;28;20049;-82
2022/01/18 02:54:35;;;;;;;22.92;11.90;;;;;;;4.36;80.92;98467.34;5038245;28;20404;-79
2022/01/18 02:57:10;;;;;;;18.92;11.98;;;;;;;4.40;81.82;98479.16;5038782;28;20057;-81
2022/01/18 02:59:46;;;;;;;16.70;10.43;;;;;;;4.44;81.08;98474.59;5038058;28;20053;-79
2022/01/18 03:05:06;;;;;;;20.05;11.82;;;;;;;4.48;81.39;98461.41;5038193;28;20053;-79
2022/01/18 03:07:34;;;;;;;16.77;11.23;;;;;;;4.48;80.42;98461.41;5037149;28;20056;-79
2022/01/18 03:10:02;;;;;;;14.65;10.38;;;;;;;4.40;80.20;98450.72;5036493;28;20049;-79
2022/01/18 03:12:31;;;;;;;16.95;10.27;;;;;;;4.38;80.60;98454.34;5036080;28;20203;-79
2022/01/18 03:14:59;;;;;;;17.58;10.82;;;;;;;4.37;80.98;98450.06;5036321;28;20490;-80
2022/01/18 03:17:27;;;;;;;20.23;10.75;;;;;;;4.40;80.75;98449.91;5036632;28;20057;-81
2022/01/18 03:19:54;;;;;;;18.08;10.23;;;;;;;4.32;79.98;98440.03;5038499;28;20053;-80
2022/01/18 03:22:22;;;;;;;15.98;10.27;;;;;;;4.25;79.81;98443.94;5039025;28;20053;-79
2022/01/18 03:24:59;;;;;;;16.38;9.43;;;;;;;4.20;80.00;98452.00;5040354;28;20045;-82
2022/01/18 03:30:13;;;;;;;15.65;9.60;;;;;;;4.25;81.54;98454.28;5038648;28;20049;-79
2022/01/18 03:32:41;;;;;;;15.48;10.35;;;;;;;4.30;81.29;98458.22;5039521;28;20046;-79
2022/01/18 03:35:10;;;;;;;15.52;10.43;;;;;;;4.32;81.17;98461.53;5038985;28;20546;-79
2022/01/18 03:37:39;;;;;;;16.77;10.82;;;;;;;4.31;80.87;98448.72;5039027;28;20488;-78
2022/01/18 03:40:10;;;;;;;17.92;10.05;;;;;;;4.32;80.88;98455.53;5038926;28;20050;-79
2022/01/18 03:42:41;;;;;;;16.77;11.88;;;;;;;4.32;80.40;98455.53;5038539;28;20495;-79
2022/01/18 03:45:12;;;;;;;16.52;10.77;;;;;;;4.28;79.90;98457.47;5038232;28;20079;-81
2022/01/18 03:47:42;;;;;;;16.30;10.60;;;;;;;4.25;79.29;98454.28;5037451;28;20442;-79
2022/01/18 03:50:11;;;;;;;17.90;11.30;;;;;;;4.21;79.33;98453.63;5038024;28;20049;-79
2022/01/18 03:52:40;;;;;;;17.10;10.85;;;;;;;4.22;80.15;98459.63;5036415;28;20503;-80
2022/01/18 03:55:10;;;;;;;18.30;12.32;;;;;;;4.23;80.63;98456.94;5037700;28;20056;-80
2022/01/18 03:57:39;;;;;;;17.00;10.40;;;;;;;4.26;81.19;98469.69;5038113;28;20056;-82
2022/01/18 04:00:09;;;;;;;16.30;9.90;;;;;;;4.30;81.24;98463.38;5038697;28;20052;-80
2022/01/18 04:02:36;;;;;;;18.70;11.23;;;;;;;4.33;81.12;98462.38;5038890;28;20060;-81
2022/01/18 04:05:06;;;;;;;21.27;12.30;;;;;;;4.32;80.31;98471.88;5041576;28;20057;-82
2022/01/18 04:07:33;;;;;;;18.25;10.68;;;;;;;4.32;80.50;98468.47;5042562;28;20049;-83
2022/01/18 04:10:01;;;;;;;17.08;11.57;;;;;;;4.34;80.39;98471.78;5044139;28;20049;-81
2022/01/18 04:12:29;;;;;;;19.85;12.25;;;;;;;4.37;80.80;98469.00;5044104;28;20053;-82
2022/01/18 04:14:58;;;;;;;17.48;10.50;;;;;;;4.38;81.26;98473.25;5043423;28;20058;-81
2022/01/18 04:17:46;;;;;;;16.98;10.93;;;;;;;4.40;81.49;98473.97;5044047;28;20454;-79
2022/01/18 04:26:01;;;;;;;25.08;13.80;;;;;;;4.44;81.16;98470.28;5043177;28;20473;-80
2022/01/18 04:28:36;;;;;;;22.55;12.50;;;;;;;4.44;80.87;98466.84;5043718;28;20053;-81
2022/01/18 04:31:06;;;;;;;20.52;12.52;;;;;;;4.43;80.97;98462.63;5042560;28;20056;-79
2022/01/18 04:33:34;;;;;;;20.30;13.02;;;;;;;4.41;80.66;98470.47;5042602;28;20049;-81
2022/01/18 04:36:04;;;;;;;24.02;13.32;;;;;;;4.40;80.94;98468.81;5042802;28;20059;-79
2022/01/18 04:38:32;;;;;;;18.10;11.95;;;;;;;4.39;80.86;98472.31;5043819;28;20049;-78
2022/01/18 04:41:04;;;;;;;21.92;13.63;;;;;;;4.41;81.28;98469.63;5044189;28;20056;-79
2022/01/18 04:43:45;;;;;;;;;;;;;;;4.43;81.39;98478.94;5043919;28;20504;-82
2022/01/18 04:48:56;;;;;;;19.00;12.55;;;;;;;4.38;80.69;98481.00;5000093;28;20609;-80
2022/01/18 04:51:25;;;;;;;19.38;13.02;;;;;;;4.39;80.83;98481.81;5043747;28;20050;-81
2022/01/18 04:53:55;;;;;;;18.27;12.07;;;;;;;4.40;81.13;98478.31;5043513;28;20060;-79
2022/01/18 04:56:30;;;;;;;17.08;11.27;;;;;;;4.41;81.27;98482.56;5042906;28;20056;-82
2022/01/18 04:58:57;;;;;;;19.85;12.13;;;;;;;4.40;80.81;98480.91;5044212;28;20048;-80
2022/01/18 05:01:25;;;;;;;19.45;11.60;;;;;;;4.39;80.92;98479.22;5043793;28;20060;-80
2022/01/18 05:03:53;;;;;;;18.63;11.93;;;;;;;4.40;80.53;98486.91;5042264;28;20065;-79
2022/01/18 05:06:22;;;;;;;22.88;12.35;;;;;;;4.38;80.16;98483.59;5041834;28;20423;-77
2022/01/18 05:08:52;;;;;;;20.23;12.18;;;;;;;4.34;80.08;98484.69;5042631;28;20280;-80
2022/01/18 05:11:22;;;;;;;20.75;12.52;;;;;;;4.34;80.25;98474.34;5041958;28;20507;-81
2022/01/18 05:14:07;;;;;;;17.27;11.50;;;;;;;4.30;79.84;98481.47;5041796;28;20056;-81
2022/01/18 05:19:27;;;;;;;17.42;11.57;;;;;;;4.19;79.89;98475.31;5036985;28;20049;-78
2022/01/18 05:24:42;;;;;;;16.95;11.32;;;;;;;4.17;80.11;98477.16;5040834;28;20053;-81
2022/01/18 05:27:09;;;;;;;19.63;12.63;;;;;;;4.16;79.75;98473.75;5041269;28;20061;-83
2022/01/18 05:29:37;;;;;;;22.23;11.35;;;;;;;4.16;79.85;98478.09;5050897;28;20068;-81
2022/01/18 05:32:05;;;;;;;21.40;12.82;;;;;;;4.14;80.00;98478.19;5051208;28;20049;-82
2022/01/18 05:34:33;;;;;;;20.65;12.93;;;;;;;4.15;80.43;98489.34;5043696;28;20053;-81
2022/01/18 05:37:00;;;;;;;19.65;11.88;;;;;;;4.19;80.89;98486.47;5041836;28;20056;-81
2022/01/18 05:39:28;;;;;;;21.58;12.05;;;;;;;4.26;81.42;98492.09;5044238;28;20053;-79
2022/01/18 05:41:57;;;;;;;20.08;12.32;;;;;;;4.31;81.75;98500.41;5042587;28;20057;-81
2022/01/18 05:44:25;;;;;;;21.40;13.40;;;;;;;4.33;81.23;98495.97;5042481;28;20057;-82
2022/01/18 05:46:53;;;;;;;26.50;14.23;;;;;;;4.33;80.45;98504.53;5041759;28;20434;-81
2022/01/18 05:49:20;;;;;;;25.17;14.73;;;;;;;4.31;80.74;98510.72;5041525;28;20053;-80
2022/01/18 05:51:48;;;;;;;28.38;15.02;;;;;;;4.32;80.55;98507.22;5042274;28;20430;-79
2022/01/18 05:54:15;;;;;;;35.28;17.48;;;;;;;4.30;80.63;98503.88;5042386;28;20075;-79
2022/01/18 05:56:43;;;;;;;46.28;25.77;;;;;;;4.35;80.99;98507.00;5041111;28;20245;-78
2022/01/18 05:59:21;;;;;;;31.75;17.67;;;;;;;4.38;81.08;98516.34;5041990;28;20053;-80
2022/01/18 06:01:50;;;;;;;27.33;15.50;;;;;;;4.37;81.27;98510.31;5041999;28;20065;-79
2022/01/18 06:06:50;;;;;;;24.95;14.05;;;;;;;4.40;81.77;98520.50;5041315;28;20080;-82
2022/01/18 06:07:08;;;;;;;27.85;14.80;;;;;;;4.43;81.31;98509.94;5039756;28;20049;-79
2022/01/18 06:09:36;;;;;;;31.80;16.13;;;;;;;4.39;80.46;98516.22;5040700;28;20072;-82
2022/01/18 06:12:04;;;;;;;30.10;15.35;;;;;;;4.35;80.38;98512.19;5041001;28;20060;-81
2022/01/18 06:14:33;;;;;;;31.70;15.63;;;;;;;4.34;80.98;98518.28;5040317;28;20049;-81
2022/01/18 06:17:00;;;;;;;26.08;14.05;;;;;;;4.38;81.36;98516.34;5040409;28;20053;-78
2022/01/18 06:19:28;;;;;;;28.75;15.75;;;;;;;4.38;80.94;98524.91;5040957;28;20542;-79
2022/01/18 06:21:56;;;;;;;29.08;14.75;;;;;;;4.37;80.86;98520.66;5040778;28;20052;-83
2022/01/18 06:24:23;;;;;;;27.55;14.68;;;;;;;4.39;81.31;98523.97;5039139;28;20050;-81
2022/01/18 06:27:06;;;;;;;29.13;14.95;;;;;;;4.38;80.95;98532.66;5038610;28;20056;-79
2022/01/18 06:29:35;;;;;;;29.60;15.68;;;;;;;4.39;80.98;98534.31;5040228;28;20050;-79
2022/01/18 06:32:03;;;;;;;29.50;14.73;;;;;;;4.42;81.65;98539.31;5039814;28;20049;-81
2022/01/18 06:34:31;;;;;;;30.58;15.43;;;;;;;4.45;81.82;98536.53;5039333;28;20045;-82
2022/01/18 06:36:58;;;;;;;40.00;17.77;;;;;;;4.48;81.69;98545.84;5039806;28;20056;-82
2022/01/18 06:39:26;;;;;;;36.78;17.15;;;;;;;4.48;81.41;98543.25;5041339;28;20057;-79
2022/01/18 06:41:54;;;;;;;36.00;16.90;;;;;;;4.48;81.41;98553.59;5037229;28;20046;-77
2022/01/18 06:44:22;;;;;;;35.22;17.45;;;;;;;4.48;82.23;98546.69;5036666;28;20522;-78
2022/01/18 06:46:51;;;;;;;40.80;18.63;;;;;;;4.49;81.99;98553.50;5037159;28;20053;-79
2022/01/18 06:49:19;;;;;;;38.10;18.90;;;;;;;4.49;81.86;98561.25;5037458;28;20121;-77
2022/01/18 06:51:46;;;;;;;36.25;17.83;;;;;;;4.50;82.10;98557.75;5036390;28;20420;-78
2022/01/18 06:54:17;;;;;;;39.08;17.50;;;;;;;4.50;82.11;98562.94;5035700;28;20515;-77
2022/01/18 06:56:48;;;;;;;34.33;17.20;;;;;;;4.50;82.11;98568.09;5034743;28;20053;-78
2022/01/18 06:59:17;;;;;;;37.35;17.25;;;;;;;4.51;81.98;98566.34;5035019;28;20514;-78
2022/01/18 07:01:45;;;;;;;44.00;19.50;;;;;;;4.49;81.71;98576.75;5035608;28;20060;-78
2022/01/18 07:04:14;;;;;;;37.17;18.17;;;;;;;4.46;81.52;98582.13;5034774;28;20100;-78
2022/01/18 07:06:42;;;;;;;33.35;15.95;;;;;;;4.46;82.06;98584.72;5034407;28;20063;-78
2022/01/18 07:09:10;;;;;;;40.85;17.65;;;;;;;4.48;81.80;98580.28;5035007;28;20500;-78
2022/01/18 07:11:38;;;;;;;35.60;17.38;;;;;;;4.47;81.81;98578.59;5032022;28;20056;-78
2022/01/18 07:14:06;;;;;;;37.03;16.98;;;;;;;4.48;81.99;98579.44;5034417;28;20061;-79
2022/01/18 07:16:36;;;;;;;36.20;16.85;;;;;;;4.46;81.98;98582.13;5035429;28;20049;-79
2022/01/18 07:19:03;;;;;;;34.65;15.93;;;;;;;4.45;82.03;98577.06;5036242;28;20412;-80
2022/01/18 07:21:32;;;;;;;72.07;19.38;;;;;;;4.44;81.92;98589.16;5028619;28;20049;-79
2022/01/18 07:24:04;;;;;;;41.85;17.50;;;;;;;4.42;81.79;98588.41;5033394;28;20049;-77
2022/01/18 07:26:33;;;;;;;33.83;15.87;;;;;;;4.42;82.07;98592.75;5035031;28;20503;-78
2022/01/18 07:29:00;;;;;;;33.50;16.05;;;;;;;4.45;82.25;98592.56;5036282;28;20057;-78
2022/01/18 07:31:29;;;;;;;36.05;17.95;;;;;;;4.45;82.21;98593.38;5036497;28;20414;-79
2022/01/18 07:33:56;;;;;;;35.97;16.88;;;;;;;4.48;82.16;98594.94;5035767;28;20049;-78
2022/01/18 07:36:24;;;;;;;44.53;20.15;;;;;;;4.48;82.31;98600.97;5034252;28;20053;-78
2022/01/18 07:38:55;;;;;;;40.13;17.15;;;;;;;4.48;82.03;98597.53;5034268;28;20392;-78
2022/01/18 07:41:22;;;;;;;37.63;17.63;;;;;;;4.47;81.92;98594.13;5034838;28;20049;-79
2022/01/18 07:43:50;;;;;;;45.83;18.55;;;;;;;4.46;81.90;98591.63;5030912;28;20056;-78
2022/01/18 07:46:17;;;;;;;39.78;20.15;;;;;;;4.43;81.48;98597.81;5031053;28;20080;-81
2022/01/18 07:48:45;;;;;;;38.85;18.23;;;;;;;4.40;82.00;98603.19;5035701;28;20049;-78
2022/01/18 07:51:16;;;;;;;33.70;16.75;;;;;;;4.43;82.09;98596.97;5034691;28;20526;-78
2022/01/18 07:53:43;;;;;;;33.05;15.75;;;;;;;4.45;82.04;98605.47;5034305;28;20056;-77
2022/01/18 07:56:13;;;;;;;39.75;18.42;;;;;;;4.46;81.77;98618.31;5033596;28;20057;-78
2022/01/18 07:58:41;;;;;;;47.35;21.80;;;;;;;4.43;81.11;98613.31;5035290;28;20050;-81
2022/01/18 08:01:08;;;;;;;42.17;18.63;;;;;;;4.37;80.71;98625.78;5035318;28;20507;-78
2022/01/18 08:03:36;;;;;;;38.80;17.58;;;;;;;4.28;81.09;98624.56;5034914;28;20110;-79
2022/01/18 08:06:03;;;;;;;34.28;17.10;;;;;;;4.23;81.14;98626.63;5035466;28;20658;-79
2022/01/18 08:08:32;;;;;;;35.53;16.90;;;;;;;4.20;80.99;98624.19;5035047;28;20052;-79
2022/01/18 08:11:00;;;;;;;31.45;16.75;;;;;;;4.17;81.06;98617.47;5033770;28;20541;-78
2022/01/18 08:13:37;;;;;;;30.90;14.57;;;;;;;4.12;81.14;98617.75;5033687;28;20624;-77
2022/01/18 08:16:22;;;;;;;25.58;13.60;;;;;;;4.12;80.91;98615.16;5034499;28;20412;-76
2022/01/18 08:18:50;;;;;;;27.55;13.55;;;;;;;4.13;81.35;98621.16;5034576;28;20450;-77
2022/01/18 08:21:18;;;;;;;26.42;12.93;;;;;;;4.17;81.62;98606.31;5034249;28;20099;-77
2022/01/18 08:23:47;;;;;;;23.95;12.40;;;;;;;4.24;82.07;98607.59;5034007;28;20423;-76
2022/01/18 08:26:14;;;;;;;20.92;10.68;;;;;;;4.31;82.39;98603.75;5033786;28;20046;-77
2022/01/18 08:28:43;;;;;;;19.38;9.93;;;;;;;4.41;82.35;98609.16;5032276;28;20052;-76
2022/01/18 08:31:11;;;;;;;15.52;9.10;;;;;;;4.48;81.98;98607.84;5029332;28;20045;-78
2022/01/18 08:33:39;;;;;;;15.07;8.15;;;;;;;4.53;81.45;98601.50;5016565;28;20401;-77
2022/01/18 08:36:07;;;;;;;12.93;7.15;;;;;;;4.58;81.51;98608.13;5014856;28;20061;-78
2022/01/18 08:38:36;;;;;;;12.00;6.40;;;;;;;4.62;81.06;98607.03;5014741;28;20057;-80
2022/01/18 08:41:04;;;;;;;12.82;7.05;;;;;;;4.62;79.96;98601.84;5015821;28;20053;-79
2022/01/18 08:43:33;;;;;;;13.45;8.32;;;;;;;4.61;79.50;98606.19;5015472;28;20042;-79
2022/01/18 08:46:03;;;;;;;13.05;7.25;;;;;;;4.61;80.63;98610.53;5014757;28;20458;-77
2022/01/18 08:48:31;;;;;;;13.82;7.90;;;;;;;4.63;80.23;98608.69;5014343;28;20050;-77
2022/01/18 08:50:59;;;;;;;11.95;6.68;;;;;;;4.61;78.94;98607.94;5016395;28;20657;-78
2022/01/18 08:53:27;;;;;;;12.95;6.95;;;;;;;4.58;79.68;98606.38;5018942;28;20069;-78
2022/01/18 08:55:55;;;;;;;11.35;7.43;;;;;;;4.61;80.09;98618.28;5018400;28;20054;-76
2022/01/18 08:58:23;;;;;;;11.63;7.38;;;;;;;4.65;80.61;98618.00;5017655;28;20045;-77
2022/01/18 09:00:50;;;;;;;12.35;6.80;;;;;;;4.69;80.75;98619.47;5018316;28;20050;-77
2022/01/18 09:03:19;;;;;;;11.02;7.28;;;;;;;4.72;80.62;98618.44;5017355;28;20129;-77
2022/01/18 09:05:47;;;;;;;11.52;7.35;;;;;;;4.75;80.71;98619.09;5018183;28;20046;-77
2022/01/18 09:08:15;;;;;;;11.40;8.02;;;;;;;4.78;80.51;98622.41;5023601;28;20061;-78
2022/01/18 09:10:44;;;;;;;13.40;7.85;;;;;;;4.81;79.83;98628.22;5037855;28;20407;-81
2022/01/18 09:13:12;;;;;;;14.50;8.43;;;;;;;4.79;79.13;98624.06;5036946;28;20049;-77
2022/01/18 09:15:39;;;;;;;12.90;7.88;;;;;;;4.74;78.74;98627.78;5037425;28;20057;-77
2022/01/18 09:18:07;;;;;;;11.00;7.82;;;;;;;4.73;78.76;98626.09;5035276;28;20423;-77
2022/01/18 09:20:38;;;;;;;10.52;6.82;;;;;;;4.81;79.50;98624.78;5018707;28;20050;-77
2022/01/18 09:23:06;;;;;;;10.93;7.07;;;;;;;4.86;78.82;98626.19;5018409;28;20061;-77
2022/01/18 09:25:34;;;;;;;11.63;6.50;;;;;;;4.92;79.11;98630.97;5018189;28;20060;-77
2022/01/18 09:28:02;;;;;;;13.90;6.95;;;;;;;5.00;79.08;98634.81;5017797;28;20046;-78
2022/01/18 09:30:32;;;;;;;12.38;6.25;;;;;;;5.06;79.29;98639.63;5018016;28;20050;-76
2022/01/18 09:33:00;;;;;;;9.27;6.60;;;;;;;5.10;78.33;98639.31;5018682;28;20054;-77
2022/01/18 09:35:28;;;;;;;9.70;6.10;;;;;;;5.14;78.54;98625.28;5018593;28;20050;-77
2022/01/18 09:37:57;;;;;;;9.85;6.57;;;;;;;5.21;77.63;98630.88;5017765;28;20069;-77
2022/01/18 09:40:26;;;;;;;8.02;6.13;;;;;;;5.31;78.41;98637.13;5018262;28;20046;-76
2022/01/18 09:42:59;;;;;;;7.85;5.72;;;;;;;5.42;78.72;98631.25;5018373;28;20054;-79
2022/01/18 09:45:29;;;;;;;10.55;6.63;;;;;;;5.53;76.97;98640.91;5018969;28;20065;-77
2022/01/18 09:47:59;;;;;;;10.27;6.30;;;;;;;5.61;75.27;98633.47;5018674;28;20053;-78
2022/01/18 09:50:31;;;;;;;9.32;5.35;;;;;;;5.71;76.69;98638.91;5022862;28;20042;-79
2022/01/18 09:53:01;;;;;;;12.50;6.32;;;;;;;5.78;77.13;98640.16;5022192;28;20124;-77
2022/01/18 09:55:32;;;;;;;8.45;5.60;;;;;;;5.86;77.18;98639.63;5021671;28;20058;-77
2022/01/18 09:58:02;;;;;;;9.77;6.25;;;;;;;5.92;75.83;98636.63;5019260;28;20096;-76
2022/01/18 10:00:32;;;;;;;10.98;6.03;;;;;;;5.96;76.24;98633.75;5018633;28;20060;-77
2022/01/18 10:03:00;;;;;;;7.80;5.18;;;;;;;6.06;76.11;98639.16;5018955;28;20507;-76
2022/01/18 10:05:31;;;;;;;10.02;6.45;;;;;;;6.14;75.99;98636.91;5018421;28;20467;-79
2022/01/18 10:08:02;;;;;;;8.70;5.35;;;;;;;6.24;75.52;98636.28;5021310;28;20072;-77
2022/01/18 10:10:44;;;;;;;9.13;5.82;;;;;;;6.35;75.24;98633.78;5036198;28;20053;-79
2022/01/18 10:13:20;;;;;;;7.75;5.20;;;;;;;6.47;75.09;98635.53;5032204;28;20072;-78
2022/01/18 10:16:03;;;;;;;7.93;5.72;;;;;;;6.62;74.23;98640.56;5032360;28;20053;-77
2022/01/18 10:18:43;;;;;;;10.93;6.20;;;;;;;6.94;74.31;98636.56;5026319;28;20045;-77
2022/01/18 10:21:12;;;;;;;9.07;6.50;;;;;;;7.82;72.97;98630.19;5036288;28;20057;-76
2022/01/18 10:23:48;;;;;;;10.68;6.05;;;;;;;9.17;66.64;98622.41;5036170;28;20049;-76
2022/01/18 10:26:24;;;;;;;9.77;5.57;;;;;;;10.66;60.15;98617.88;5034921;28;20529;-79
2022/01/18 10:29:04;;;;;;;7.95;5.28;;;;;;;12.30;55.61;98619.81;5035365;28;20053;-77
2022/01/18 10:31:38;;;;;;;6.43;4.30;;;;;;;13.73;51.24;98616.59;5034743;28;20107;-79
2022/01/18 10:34:28;;;;;;;8.02;5.25;;;;;;;14.09;48.65;98608.66;5034626;28;20045;-80
2022/01/18 10:36:59;;;;;;;5.85;3.67;;;;;;;13.75;48.87;98607.63;5035234;28;20057;-76
2022/01/18 10:39:35;;;;;;;6.32;4.13;;;;;;;13.86;48.50;98609.16;5037128;28;20095;-77
2022/01/18 10:42:14;;;;;;;14.43;3.60;;;;;;;15.02;44.93;98598.25;5037836;28;20045;-76
2022/01/18 10:44:43;;;;;;;6.30;3.85;;;;;;;15.08;45.75;98594.97;5038292;28;20057;-78
2022/01/18 10:47:11;;;;;;;5.53;3.97;;;;;;;16.04;43.47;98596.97;5037057;28;20057;-77
2022/01/18 10:49:40;;;;;;;6.30;3.80;;;;;;;16.96;41.80;98590.41;5036495;28;20050;-77
2022/01/18 10:52:18;;;;;;;5.05;3.38;;;;;;;17.17;42.98;98585.34;5036788;28;20458;-76
2022/01/18 10:54:48;;;;;;;7.93;4.03;;;;;;;17.27;42.47;98577.19;5037381;28;20056;-80
2022/01/18 10:57:20;;;;;;;6.28;3.70;;;;;;;18.28;38.38;98580.44;5037291;28;20049;-76
2022/01/18 10:59:48;;;;;;;6.20;3.88;;;;;;;18.80;38.76;98584.78;5036426;28;20045;-83
2022/01/18 11:02:18;;;;;;;4.88;3.67;;;;;;;17.20;39.36;98579.72;5036495;28;20042;-81
2022/01/18 11:04:49;;;;;;;4.80;3.88;;;;;;;15.99;43.18;98572.97;5035805;28;20559;-80
2022/01/18 11:07:18;;;;;;;7.15;4.10;;;;;;;16.65;41.61;98578.84;5035562;28;20056;-79
2022/01/18 11:09:50;;;;;;;4.72;3.70;;;;;;;17.42;38.94;98570.16;5037171;28;20057;-75
2022/01/18 11:12:20;;;;;;;5.82;4.32;;;;;;;18.06;38.25;98571.56;5037255;28;20042;-79
2022/01/18 11:14:59;;;;;;;4.35;3.45;;;;;;;18.23;38.32;98566.94;5036959;28;20049;-77
2022/01/18 11:17:27;;;;;;;8.15;4.10;;;;;;;18.03;37.92;98562.19;5038260;28;20128;-76
2022/01/18 11:19:57;;;;;;;7.57;4.95;;;;;;;16.55;39.80;98566.88;5037330;28;20053;-77
2022/01/18 11:22:26;;;;;;;6.45;4.10;;;;;;;14.86;44.53;98559.63;5038847;28;20084;-75
2022/01/18 11:24:59;;;;;;;5.95;3.92;;;;;;;13.44;46.39;98557.38;5036904;28;20057;-77
2022/01/18 11:27:29;;;;;;;8.93;3.80;;;;;;;12.35;48.22;98558.25;5034988;28;20515;-76
2022/01/18 11:29:58;;;;;;;5.53;3.45;;;;;;;11.53;50.06;98554.44;5036972;28;20052;-77
2022/01/18 11:32:27;;;;;;;5.15;3.70;;;;;;;11.01;51.99;98559.13;5036850;28;20045;-78
2022/01/18 11:35:05;;;;;;;6.97;4.07;;;;;;;10.57;52.12;98550.81;5035134;28;20403;-78
2022/01/18 11:37:41;;;;;;;7.30;4.22;;;;;;;10.22;52.67;98553.84;5034873;28;20068;-76
2022/01/18 11:40:13;;;;;;;7.25;4.10;;;;;;;9.81;54.31;98547.72;5035703;28;20045;-79
2022/01/18 11:42:50;;;;;;;7.03;5.20;;;;;;;9.47;55.06;98546.16;5034061;28;20056;-78
2022/01/18 11:45:37;;;;;;;9.27;6.25;;;;;;;9.13;56.21;98548.09;5033900;28;20140;-79
2022/01/18 11:48:10;;;;;;;8.55;5.90;;;;;;;8.90;59.83;98555.16;5033484;28;20061;-77
2022/01/18 11:50:41;;;;;;;10.68;6.32;;;;;;;8.71;58.30;98558.41;5033653;28;20060;-77
2022/01/18 11:53:23;;;;;;;8.95;5.72;;;;;;;8.49;58.63;98561.06;5034252;28;20050;-79
2022/01/18 11:55:54;;;;;;;9.75;7.07;;;;;;;8.26;59.07;98558.41;5034391;28;20059;-81
2022/01/18 11:58:22;;;;;;;10.02;6.20;;;;;;;8.00;59.37;98568.22;5035475;28;20049;-79
2022/01/18 12:00:53;;;;;;;9.75;5.93;;;;;;;7.79;59.85;98565.50;5035527;28;20061;-80
2022/01/18 12:03:25;;;;;;;9.55;5.68;;;;;;;7.64;61.34;98567.47;5035059;28;20107;-84
2022/01/18 12:05:53;;;;;;;9.45;6.15;;;;;;;7.60;61.07;98558.25;5033550;28;20057;-78
2022/01/18 12:08:35;;;;;;;10.80;6.18;;;;;;;7.58;61.78;98557.53;5034357;28;20060;-80
2022/01/18 12:11:06;;;;;;;12.48;7.32;;;;;;;7.55;61.49;98556.00;5035457;28;20060;-80
2022/01/18 12:13:45;;;;;;;12.43;6.25;;;;;;;7.48;61.83;98553.94;5037614;28;20053;-79
2022/01/18 12:16:28;;;;;;;10.55;6.85;;;;;;;7.39;62.79;98550.28;5036630;28;20053;-80
2022/01/18 12:19:00;;;;;;;;;;;;;;;7.38;62.55;98557.25;5039519;28;20049;-77
2022/01/18 12:21:30;;;;;;;8.15;5.13;;;;;;;7.25;62.63;98550.47;5034832;28;19928;-79
2022/01/18 12:24:13;;;;;;;9.88;5.65;;;;;;;7.16;62.52;98555.41;5035594;28;20046;-78
2022/01/18 12:26:45;;;;;;;8.48;5.05;;;;;;;7.07;62.81;98544.88;5038698;28;20056;-79